createdAt,value
2023-03-25T00:02:38.242Z,99955.59
2023-03-25T00:05:23.663Z,99982.25
2023-03-25T00:08:07.697Z,99989.25
2023-03-25T00:10:54.926Z,99938.06
2023-03-25T00:13:40.529Z,99942.50
2023-03-25T00:16:26.062Z,99979.28
2023-03-25T00:19:10.425Z,99960.81
2023-03-25T00:21:54.433Z,99931.81
2023-03-25T00:24:38.327Z,99970.91
2023-03-25T00:27:22.361Z,99978.13
2023-03-25T00:30:08.658Z,99977.81
2023-03-25T00:32:54.329Z,99934.16
2023-03-25T00:35:39.823Z,99964.06
2023-03-25T00:38:24.682Z,99966.81
2023-03-25T00:41:13.875Z,99910.25
2023-03-25T00:43:59.702Z,99929.75
2023-03-25T00:46:43.691Z,99947.00
2023-03-25T00:49:29.708Z,99949.00
2023-03-25T00:52:14.427Z,99900.34
2023-03-25T00:54:58.365Z,99907.38
2023-03-25T00:57:42.463Z,99940.50
2023-03-25T01:00:26.575Z,99904.09
2023-03-25T01:03:10.634Z,99903.84
2023-03-25T01:05:58.123Z,99901.19
2023-03-25T01:08:43.224Z,99911.53
2023-03-25T01:11:29.678Z,99904.06
2023-03-25T01:14:16.633Z,99872.31
2023-03-25T01:17:01.189Z,99899.78
2023-03-25T01:19:47.230Z,99876.28
2023-03-25T01:22:32.776Z,99908.94
2023-03-25T01:25:16.806Z,99902.84
2023-03-25T01:28:00.966Z,99884.00
2023-03-25T01:30:45.177Z,99898.91
2023-03-25T01:33:29.249Z,99901.09
2023-03-25T01:36:14.152Z,99884.41
2023-03-25T01:39:01.619Z,99875.03
2023-03-25T01:41:50.236Z,99862.38
2023-03-25T01:45:20.735Z,99901.50
2023-03-25T01:48:10.465Z,99868.03
2023-03-25T01:50:59.732Z,99883.72
2023-03-25T01:53:44.492Z,99889.41
2023-03-25T01:56:32.770Z,99895.41
2023-03-25T01:59:20.224Z,99905.56
2023-03-25T02:02:09.252Z,99865.16
2023-03-25T02:05:00.121Z,99863.72
2023-03-25T02:07:46.945Z,99860.06
2023-03-25T02:10:31.598Z,99838.28
2023-03-25T02:13:17.752Z,99815.00
2023-03-25T02:16:22.486Z,99880.28
2023-03-25T02:19:35.615Z,99891.34
2023-03-25T02:22:52.075Z,99847.94
2023-03-25T02:26:15.548Z,99860.06
2023-03-25T02:29:10.945Z,99857.41
2023-03-25T02:32:10.966Z,99851.28
2023-03-25T02:35:12.647Z,99887.13
2023-03-25T02:38:13.018Z,99876.22
2023-03-25T02:41:08.326Z,99875.94
2023-03-25T02:43:59.672Z,99873.69
2023-03-25T02:46:50.892Z,99862.84
2023-03-25T02:49:38.988Z,99840.88
2023-03-25T02:52:27.420Z,99866.34
2023-03-25T02:55:16.941Z,99826.47
2023-03-25T02:58:04.178Z,99830.97
2023-03-25T03:00:52.265Z,99869.13
2023-03-25T03:03:36.863Z,99862.34
2023-03-25T03:06:22.630Z,99825.72
2023-03-25T03:09:25.660Z,99853.22
2023-03-25T03:12:29.618Z,99859.66
2023-03-25T03:15:26.372Z,99852.66
2023-03-25T03:18:20.549Z,99851.56
2023-03-25T03:21:11.450Z,99834.94
2023-03-25T03:24:01.631Z,99835.34
2023-03-25T03:26:53.445Z,99833.84
2023-03-25T03:29:46.546Z,99841.44
2023-03-25T03:32:39.394Z,99846.56
2023-03-25T03:35:26.137Z,99847.94
2023-03-25T03:38:16.446Z,99807.63
2023-03-25T03:41:05.914Z,99839.28
2023-03-25T03:43:54.116Z,99829.97
2023-03-25T03:46:44.734Z,99788.19
2023-03-25T03:49:34.284Z,99819.81
2023-03-25T03:52:25.749Z,99789.03
2023-03-25T03:55:14.173Z,99779.16
2023-03-25T03:58:01.917Z,99805.31
2023-03-25T04:00:52.075Z,99781.41
2023-03-25T04:03:41.401Z,99784.84
2023-03-25T04:06:35.623Z,99823.16
2023-03-25T04:09:27.752Z,99825.16
2023-03-25T04:12:17.733Z,99786.88
2023-03-25T04:15:03.748Z,99754.84
2023-03-25T04:17:48.305Z,99826.81
2023-03-25T04:20:36.879Z,99840.56
2023-03-25T04:23:21.458Z,99805.19
2023-03-25T04:26:06.480Z,99837.38
2023-03-25T04:28:51.022Z,99835.84
2023-03-25T04:31:35.389Z,99830.91
2023-03-25T04:34:20.738Z,99803.44
2023-03-25T04:37:06.255Z,99818.91
2023-03-25T04:39:50.221Z,99832.78
2023-03-25T04:42:37.482Z,99836.34
2023-03-25T04:45:21.791Z,99821.84
2023-03-25T04:48:06.215Z,99772.56
2023-03-25T04:50:51.853Z,99786.41
2023-03-25T04:53:37.239Z,99822.66
2023-03-25T04:56:21.431Z,99786.84
2023-03-25T04:59:06.473Z,99820.56
2023-03-25T05:01:50.992Z,99735.16
2023-03-25T05:04:35.767Z,99770.91
2023-03-25T05:07:20.195Z,99743.91
2023-03-25T05:10:05.912Z,99791.38
2023-03-25T05:12:51.226Z,99778.13
2023-03-25T05:15:39.494Z,99820.13
2023-03-25T05:18:23.448Z,99824.63
2023-03-25T05:21:07.751Z,99781.81
2023-03-25T05:23:52.757Z,99825.13
2023-03-25T05:26:38.230Z,99786.16
2023-03-25T05:29:22.099Z,99788.19
2023-03-25T05:32:06.435Z,99778.78
2023-03-25T05:34:50.371Z,99805.41
2023-03-25T05:37:34.421Z,99825.22
2023-03-25T05:40:18.580Z,99795.88
2023-03-25T05:43:04.128Z,99831.78
2023-03-25T05:45:48.113Z,99798.53
2023-03-25T05:48:33.290Z,99809.66
2023-03-25T05:51:21.829Z,99802.50
2023-03-25T05:54:11.961Z,99795.28
2023-03-25T05:56:56.280Z,99820.81
2023-03-25T05:59:41.832Z,99782.59
2023-03-25T06:02:25.971Z,99817.31
2023-03-25T06:05:14.196Z,99786.97
2023-03-25T06:07:58.312Z,99783.31
2023-03-25T06:10:42.404Z,99809.56
2023-03-25T06:13:26.398Z,99815.97
2023-03-25T06:16:11.894Z,99790.59
2023-03-25T06:19:00.173Z,99757.41
2023-03-25T06:21:49.571Z,99789.81
2023-03-25T06:24:33.638Z,99797.38
2023-03-25T06:27:19.213Z,99798.16
2023-03-25T06:30:04.537Z,99765.41
2023-03-25T06:32:52.757Z,99768.78
2023-03-25T06:35:36.999Z,99799.16
2023-03-25T06:38:22.553Z,99798.28
2023-03-25T06:41:21.627Z,99800.19
2023-03-25T06:44:13.376Z,99771.13
2023-03-25T06:47:05.610Z,99806.50
2023-03-25T06:50:11.910Z,99818.91
2023-03-25T06:52:56.066Z,99814.06
2023-03-25T06:55:41.400Z,99782.88
2023-03-25T06:58:25.338Z,99814.72
2023-03-25T07:01:09.324Z,99793.19
2023-03-25T07:03:54.233Z,99818.25
2023-03-25T07:06:39.715Z,99775.84
2023-03-25T07:09:23.787Z,99816.34
2023-03-25T07:12:09.232Z,99787.06
2023-03-25T07:14:54.165Z,99787.66
2023-03-25T07:17:38.311Z,99822.72
2023-03-25T07:20:22.430Z,99804.72
2023-03-25T07:23:07.771Z,99802.47
2023-03-25T07:25:52.304Z,99805.94
2023-03-25T07:28:38.189Z,99792.31
2023-03-25T07:31:22.345Z,99808.53
2023-03-25T07:34:08.611Z,99771.47
2023-03-25T07:36:52.639Z,99772.00
2023-03-25T07:39:38.285Z,99738.44
2023-03-25T07:42:22.296Z,99800.28
2023-03-25T07:45:24.621Z,99797.94
2023-03-25T07:48:14.854Z,99795.66
2023-03-25T07:50:59.438Z,99800.41
2023-03-25T07:53:45.392Z,99787.47
2023-03-25T07:56:30.832Z,99766.03
2023-03-25T07:59:14.717Z,99794.34
2023-03-25T08:01:58.756Z,99760.09
2023-03-25T08:04:42.836Z,99787.13
2023-03-25T08:07:28.502Z,99773.63
2023-03-25T08:10:15.270Z,99785.69
2023-03-25T08:13:00.603Z,99752.94
2023-03-25T08:15:44.533Z,99790.22
2023-03-25T08:18:28.768Z,99795.88
2023-03-25T08:21:12.969Z,99743.72
2023-03-25T08:24:02.562Z,99757.91
2023-03-25T08:26:46.568Z,99728.69
2023-03-25T08:29:34.594Z,99762.97
2023-03-25T08:32:18.741Z,99728.66
2023-03-25T08:35:05.447Z,99758.00
2023-03-25T08:37:49.883Z,99727.09
2023-03-25T08:40:34.224Z,99753.34
2023-03-25T08:43:18.204Z,99767.88
2023-03-25T08:46:03.785Z,99734.19
2023-03-25T08:48:50.150Z,99734.50
2023-03-25T08:51:34.542Z,99719.81
2023-03-25T08:54:18.682Z,99725.13
2023-03-25T08:57:02.908Z,99756.22
2023-03-25T08:59:46.975Z,99733.25
2023-03-25T09:02:32.496Z,99760.44
2023-03-25T09:05:17.258Z,99724.66
2023-03-25T09:08:01.138Z,99761.97
2023-03-25T09:10:45.269Z,99743.81
2023-03-25T09:13:29.317Z,99726.38
2023-03-25T09:16:13.395Z,99753.94
2023-03-25T09:18:59.234Z,99705.84
2023-03-25T09:21:43.990Z,99741.84
2023-03-25T09:24:28.017Z,99737.88
2023-03-25T09:27:12.034Z,99694.53
2023-03-25T09:29:56.296Z,99673.78
2023-03-25T09:32:40.399Z,99736.59
2023-03-25T09:35:25.786Z,99688.75
2023-03-25T09:38:09.851Z,99730.59
2023-03-25T09:40:53.865Z,99733.16
2023-03-25T09:43:56.761Z,99706.53
2023-03-25T09:46:41.665Z,99691.16
2023-03-25T09:49:32.891Z,99727.75
2023-03-25T09:52:22.429Z,99688.44
2023-03-25T09:55:10.123Z,99684.81
2023-03-25T09:58:01.885Z,99653.22
2023-03-25T10:00:48.610Z,99671.97
2023-03-25T10:03:39.706Z,99682.00
2023-03-25T10:06:27.279Z,99677.50
2023-03-25T10:09:29.618Z,99671.97
2023-03-25T10:12:29.332Z,99681.69
2023-03-25T10:15:28.512Z,99699.78
2023-03-25T10:18:34.242Z,99657.72
2023-03-25T10:21:22.273Z,99636.03
2023-03-25T10:24:18.198Z,99651.53
2023-03-25T10:27:07.681Z,99681.56
2023-03-25T10:29:55.578Z,99617.72
2023-03-25T10:32:42.671Z,99666.75
2023-03-25T10:35:30.978Z,99632.66
2023-03-25T10:38:20.897Z,99630.41
2023-03-25T10:41:15.678Z,99628.25
2023-03-25T10:44:01.353Z,99645.63
2023-03-25T10:46:48.573Z,99655.84
2023-03-25T10:49:34.027Z,99656.25
2023-03-25T10:52:18.563Z,99625.44
2023-03-25T10:55:02.387Z,99617.19
2023-03-25T10:57:47.687Z,99636.19
2023-03-25T11:00:34.385Z,99610.66
2023-03-25T11:03:22.400Z,99599.00
2023-03-25T11:06:07.224Z,99643.53
2023-03-25T11:09:15.469Z,99596.97
2023-03-25T11:12:01.680Z,99601.56
2023-03-25T11:14:45.933Z,99624.97
2023-03-25T11:17:31.316Z,99582.31
2023-03-25T11:20:22.082Z,99557.75
2023-03-25T11:23:09.284Z,99611.00
2023-03-25T11:25:55.594Z,99562.69
2023-03-25T11:28:42.717Z,99550.91
2023-03-25T11:31:30.148Z,99595.00
2023-03-25T11:34:21.743Z,99596.19
2023-03-25T11:37:17.036Z,99558.78
2023-03-25T11:40:14.701Z,99590.84
2023-03-25T11:42:59.985Z,99591.00
2023-03-25T11:45:45.537Z,99551.38
2023-03-25T11:48:33.142Z,99561.03
2023-03-25T11:51:22.202Z,99552.19
2023-03-25T11:54:09.904Z,99550.16
2023-03-25T11:56:55.907Z,99537.50
2023-03-25T11:59:45.103Z,99569.41
2023-03-25T12:02:32.410Z,99513.53
2023-03-25T12:05:17.877Z,99556.25
2023-03-25T12:08:11.645Z,99576.75
2023-03-25T12:11:01.798Z,99523.78
2023-03-25T12:13:53.780Z,99527.06
2023-03-25T12:16:45.417Z,99575.84
2023-03-25T12:19:40.533Z,99499.19
2023-03-25T12:22:40.879Z,99538.28
2023-03-25T12:25:38.322Z,99536.94
2023-03-25T12:28:56.973Z,99529.97
2023-03-25T12:32:03.529Z,99552.94
2023-03-25T12:34:58.819Z,99550.97
2023-03-25T12:38:03.364Z,99479.97
2023-03-25T12:41:06.439Z,99550.22
2023-03-25T12:44:01.555Z,99556.06
2023-03-25T12:47:10.215Z,99511.06
2023-03-25T12:50:07.001Z,99542.16
2023-03-25T12:52:58.210Z,99540.22
2023-03-25T12:55:58.007Z,99531.00
2023-03-25T12:59:17.388Z,99528.25
2023-03-25T13:02:16.244Z,99488.22
2023-03-25T13:05:13.743Z,99481.13
2023-03-25T13:08:03.787Z,99490.47
2023-03-25T13:10:52.512Z,99482.06
2023-03-25T13:13:41.290Z,99484.78
2023-03-25T13:16:28.981Z,99514.03
2023-03-25T13:19:17.015Z,99515.97
2023-03-25T13:22:07.026Z,99479.09
2023-03-25T13:24:55.735Z,99503.88
2023-03-25T13:27:43.449Z,99511.94
2023-03-25T13:30:33.854Z,99498.94
2023-03-25T13:33:22.089Z,99465.28
2023-03-25T13:36:11.849Z,99463.19
2023-03-25T13:38:59.321Z,99506.19
2023-03-25T13:41:46.041Z,99494.91
2023-03-25T13:44:35.130Z,99465.25
2023-03-25T13:47:25.625Z,99490.91
2023-03-25T13:50:17.860Z,99458.16
2023-03-25T13:53:06.655Z,99420.28
2023-03-25T13:56:03.501Z,99445.13
2023-03-25T13:59:08.421Z,99474.41
2023-03-25T14:02:18.235Z,99431.53
2023-03-25T14:05:28.135Z,99492.34
2023-03-25T14:08:47.718Z,99473.63
2023-03-25T14:11:39.709Z,99449.56
2023-03-25T14:14:25.088Z,99453.28
2023-03-25T14:17:09.355Z,99448.47
2023-03-25T14:19:58.928Z,99453.06
2023-03-25T14:22:45.026Z,99481.66
2023-03-25T14:25:34.617Z,99461.91
2023-03-25T14:28:22.090Z,99423.97
2023-03-25T14:31:18.179Z,99424.06
2023-03-25T14:34:29.276Z,99449.59
2023-03-25T14:37:27.517Z,99416.44
2023-03-25T14:41:01.950Z,99426.34
2023-03-25T14:44:02.288Z,99448.72
2023-03-25T14:46:47.215Z,99417.09
2023-03-25T14:49:54.410Z,99451.25
2023-03-25T14:52:41.450Z,99449.78
2023-03-25T14:55:30.025Z,99448.75
2023-03-25T14:58:20.450Z,99455.25
2023-03-25T15:01:11.546Z,99414.53
2023-03-25T15:04:11.946Z,99378.66
2023-03-25T15:06:56.488Z,99452.88
2023-03-25T15:09:48.656Z,99439.50
2023-03-25T15:12:32.920Z,99408.22
2023-03-25T15:15:28.462Z,99448.16
2023-03-25T15:18:34.278Z,99406.41
2023-03-25T15:21:18.148Z,99424.56
2023-03-25T15:24:07.642Z,99461.78
2023-03-25T15:26:51.835Z,99457.91
2023-03-25T15:29:55.508Z,99398.94
2023-03-25T15:32:53.999Z,99437.25
2023-03-25T15:35:51.918Z,99443.16
2023-03-25T15:38:48.937Z,99451.47
2023-03-25T15:42:07.308Z,99421.22
2023-03-25T15:45:15.935Z,99412.53
2023-03-25T15:48:22.903Z,99415.16
2023-03-25T15:51:40.220Z,99445.66
2023-03-25T15:54:33.146Z,99409.38
2023-03-25T15:57:24.420Z,99453.63
2023-03-25T16:00:15.609Z,99414.91
2023-03-25T16:03:07.752Z,99422.78
2023-03-25T16:05:55.514Z,99451.88
2023-03-25T16:08:44.419Z,99375.94
2023-03-25T16:11:30.060Z,99403.16
2023-03-25T16:14:16.221Z,99400.88
2023-03-25T16:17:03.232Z,99443.28
2023-03-25T16:19:50.765Z,99411.44
2023-03-25T16:22:37.668Z,99447.09
2023-03-25T16:25:27.865Z,99442.59
2023-03-25T16:28:17.382Z,99418.28
2023-03-25T16:31:03.135Z,99439.59
2023-03-25T16:33:47.240Z,99405.59
2023-03-25T16:36:31.376Z,99385.34
2023-03-25T16:39:16.582Z,99408.13
2023-03-25T16:42:06.428Z,99409.03
2023-03-25T16:44:50.481Z,99390.09
2023-03-25T16:47:35.453Z,99416.31
2023-03-25T16:50:20.272Z,99433.84
2023-03-25T16:53:04.706Z,99409.63
2023-03-25T16:55:50.695Z,99450.25
2023-03-25T16:58:38.332Z,99413.34
2023-03-25T17:01:23.083Z,99459.22
2023-03-25T17:04:11.777Z,99407.41
2023-03-25T17:06:59.532Z,99413.34
2023-03-25T17:09:45.203Z,99408.06
2023-03-25T17:12:30.840Z,99443.25
2023-03-25T17:15:18.869Z,99452.72
2023-03-25T17:18:04.838Z,99417.69
2023-03-25T17:20:51.861Z,99424.44
2023-03-25T17:23:37.495Z,99430.31
2023-03-25T17:26:24.295Z,99438.31
2023-03-25T17:29:10.397Z,99454.50
2023-03-25T17:32:00.825Z,99470.06
2023-03-25T17:34:46.464Z,99452.72
2023-03-25T17:37:32.315Z,99427.47
2023-03-25T17:40:23.457Z,99468.72
2023-03-25T17:43:07.751Z,99459.13
2023-03-25T17:45:52.682Z,99418.41
2023-03-25T17:48:38.195Z,99421.44
2023-03-25T17:51:23.437Z,99411.81
2023-03-25T17:54:07.599Z,99441.13
2023-03-25T17:56:51.743Z,99460.91
2023-03-25T17:59:35.777Z,99444.41
2023-03-25T18:02:19.540Z,99394.19
2023-03-25T18:05:07.327Z,99416.06
2023-03-25T18:07:51.322Z,99406.94
2023-03-25T18:10:36.766Z,99450.44
2023-03-25T18:13:21.870Z,99455.72
2023-03-25T18:16:06.826Z,99429.34
2023-03-25T18:18:51.184Z,99457.31
2023-03-25T18:21:36.645Z,99455.16
2023-03-25T18:24:21.038Z,99444.03
2023-03-25T18:27:06.538Z,99419.47
2023-03-25T18:29:50.508Z,99407.66
2023-03-25T18:32:35.725Z,99416.81
2023-03-25T18:35:19.990Z,99461.00
2023-03-25T18:38:06.112Z,99420.06
2023-03-25T18:40:50.706Z,99414.63
2023-03-25T18:43:35.125Z,99456.09
2023-03-25T18:46:19.317Z,99408.44
2023-03-25T18:49:03.484Z,99412.00
2023-03-25T18:51:48.434Z,99441.78
2023-03-25T18:54:33.888Z,99412.88
2023-03-25T18:57:18.128Z,99405.44
2023-03-25T19:00:02.210Z,99416.34
2023-03-25T19:02:47.362Z,99436.31
2023-03-25T19:05:31.641Z,99412.84
2023-03-25T19:08:18.535Z,99437.97
2023-03-25T19:11:16.350Z,99426.22
2023-03-25T19:14:04.872Z,99405.94
2023-03-25T19:17:01.348Z,99397.09
2023-03-25T19:19:49.701Z,99433.84
2023-03-25T19:22:33.755Z,99407.75
2023-03-25T19:25:18.805Z,99448.84
2023-03-25T19:28:04.579Z,99419.00
2023-03-25T19:30:50.884Z,99451.03
2023-03-25T19:33:35.326Z,99454.78
2023-03-25T19:36:20.062Z,99438.97
2023-03-25T19:39:05.954Z,99401.28
2023-03-25T19:41:51.484Z,99411.63
2023-03-25T19:44:37.015Z,99407.84
2023-03-25T19:47:20.893Z,99404.50
2023-03-25T19:50:05.102Z,99439.88
2023-03-25T19:52:50.600Z,99437.63
2023-03-25T19:55:34.716Z,99398.81
2023-03-25T19:58:20.269Z,99358.72
2023-03-25T20:01:06.689Z,99400.44
2023-03-25T20:03:51.466Z,99428.88
2023-03-25T20:06:37.316Z,99423.31
2023-03-25T20:09:21.650Z,99433.00
2023-03-25T20:12:06.098Z,99418.09
2023-03-25T20:14:50.113Z,99383.75
2023-03-25T20:17:35.750Z,99379.41
2023-03-25T20:20:21.502Z,99386.28
2023-03-25T20:23:05.495Z,99421.22
2023-03-25T20:25:51.604Z,99380.91
2023-03-25T20:28:37.402Z,99398.81
2023-03-25T20:31:23.589Z,99369.19
2023-03-25T20:34:09.056Z,99366.34
2023-03-25T20:36:54.475Z,99384.69
2023-03-25T20:39:40.061Z,99412.47
2023-03-25T20:42:24.355Z,99410.59
2023-03-25T20:45:10.003Z,99394.50
2023-03-25T20:47:54.103Z,99392.41
2023-03-25T20:50:39.649Z,99344.00
2023-03-25T20:53:23.617Z,99374.47
2023-03-25T20:56:07.805Z,99379.66
2023-03-25T20:58:51.811Z,99363.34
2023-03-25T21:01:36.974Z,99325.31
2023-03-25T21:04:21.312Z,99361.53
2023-03-25T21:07:07.167Z,99350.06
2023-03-25T21:09:51.226Z,99354.97
2023-03-25T21:12:43.776Z,99348.19
2023-03-25T21:15:28.761Z,99343.16
2023-03-25T21:18:14.776Z,99346.28
2023-03-25T21:21:00.671Z,99335.97
2023-03-25T21:23:46.931Z,99304.25
2023-03-25T21:26:30.897Z,99273.84
2023-03-25T21:29:14.866Z,99318.28
2023-03-25T21:31:58.982Z,99324.53
2023-03-25T21:34:43.461Z,99292.34
2023-03-25T21:37:29.135Z,99341.00
2023-03-25T21:40:14.647Z,99263.09
2023-03-25T21:42:58.808Z,99331.94
2023-03-25T21:45:42.977Z,99324.66
2023-03-25T21:48:27.404Z,99297.94
2023-03-25T21:51:14.527Z,99315.53
2023-03-25T21:54:00.559Z,99309.72
2023-03-25T21:56:47.143Z,99339.28
2023-03-25T21:59:31.313Z,99335.47
2023-03-25T22:02:15.292Z,99290.66
2023-03-25T22:04:59.341Z,99280.31
2023-03-25T22:07:43.398Z,99337.00
2023-03-25T22:10:27.369Z,99294.44
2023-03-25T22:13:13.033Z,99337.00
2023-03-25T22:15:57.216Z,99270.59
2023-03-25T22:18:41.774Z,99278.91
2023-03-25T22:21:29.594Z,99328.75
2023-03-25T22:24:13.815Z,99290.72
2023-03-25T22:26:57.871Z,99297.28
2023-03-25T22:29:44.601Z,99282.97
2023-03-25T22:32:28.676Z,99325.47
2023-03-25T22:35:14.380Z,99325.59
2023-03-25T22:37:58.633Z,99286.25
2023-03-25T22:40:42.601Z,99293.41
2023-03-25T22:43:26.621Z,99270.56
2023-03-25T22:46:13.728Z,99315.66
2023-03-25T22:48:57.973Z,99264.25
2023-03-25T22:51:42.360Z,99239.63
2023-03-25T22:54:26.334Z,99291.09
2023-03-25T22:57:10.318Z,99250.97
2023-03-25T22:59:54.178Z,99293.16
2023-03-25T23:02:40.028Z,99270.19
2023-03-25T23:05:24.004Z,99234.44
2023-03-25T23:08:08.463Z,99249.81
2023-03-25T23:10:52.700Z,99318.81
2023-03-25T23:13:37.135Z,99308.72
2023-03-25T23:16:23.560Z,99315.16
2023-03-25T23:19:10.183Z,99312.56
2023-03-25T23:21:54.465Z,99265.06
2023-03-25T23:24:40.826Z,99270.09
2023-03-25T23:27:27.044Z,99245.19
2023-03-25T23:30:11.719Z,99227.47
2023-03-25T23:32:55.561Z,99256.28
2023-03-25T23:35:41.083Z,99230.09
2023-03-25T23:38:25.126Z,99259.44
2023-03-25T23:41:10.826Z,99256.00
2023-03-25T23:43:56.448Z,99264.88
2023-03-25T23:46:42.002Z,99203.53
2023-03-25T23:49:25.980Z,99221.88
2023-03-25T23:52:12.403Z,99244.88
2023-03-25T23:54:56.263Z,99236.22
2023-03-25T23:57:40.457Z,99255.59
